Huntsville, Texas
Current Conditions -  °F | °C
As of 8:53 AM on Saturday 25 Oct 2014 (Local Time) from KUTS Reporting Station
Clear Clear  
Wind Chill: 18°   Ceiling: Unl
Heat Index: 18°   Visibility: 9mi
Dew Point: 14°   Wind: 0mph
Humidity: 78%   Direction: NA
Pressure: 30.19"   Gusts: NA
Location:  30.72°N, 95.55°W
Report Text: KUTS 251353Z AUTO 00000KT 9SM CLR 18/14 A3019 RMK AO2 SLP218 T01830144
Loading
Personal Weather Stations






























Interactive Weather Map
Tropical Storm Tracking
New forecast layout! Learn more

10-Day Weather Forecast

Advertisements
Track Severe Weather on mobile